Livingston, United Kingdom
Current Conditions -  °F | °C
As of 6:20 PM on Friday 31 Oct 2014 (Local Time) from EGPH Reporting Station
Broken Clouds Broken Clouds  
Wind Chill: 64°   Ceiling: 3200
Heat Index: 64°   Visibility: 6mi
Dew Point: 57°   Wind: 15mph
Humidity: 77%   Direction: 210°SSW
Pressure: 29.65"   Gusts: NA
Location:  55.9°N, 3.52°W
Report Text: EGPH 311820Z 21013KT 9999 BKN032 18/14 Q1004
Loading
Personal Weather Stations






























Interactive Weather Map
Tropical Storm Tracking
New forecast layout! Learn more

10-Day Weather Forecast

Advertisements
Track Severe Weather on mobile